createdAt,value
2022-12-15T00:01:46.094Z,-5.51
2022-12-15T00:04:31.965Z,-5.47
2022-12-15T00:07:19.337Z,-5.42
2022-12-15T00:10:05.142Z,-5.46
2022-12-15T00:12:51.286Z,-5.50
2022-12-15T00:15:37.102Z,-5.55
2022-12-15T00:18:23.744Z,-5.50
2022-12-15T00:21:09.507Z,-5.46
2022-12-15T00:23:56.499Z,-5.53
2022-12-15T00:26:42.311Z,-5.51
2022-12-15T00:29:28.301Z,-5.52
2022-12-15T00:32:14.052Z,-5.50
2022-12-15T00:34:59.944Z,-5.46
2022-12-15T00:37:45.639Z,-5.46
2022-12-15T00:40:15.044Z,-5.45
2022-12-15T00:42:42.373Z,-5.50
2022-12-15T00:45:11.005Z,-5.56
2022-12-15T00:47:38.521Z,-5.59
2022-12-15T00:50:25.164Z,-5.54
2022-12-15T00:53:10.803Z,-5.50
2022-12-15T00:55:58.087Z,-5.54
2022-12-15T00:58:43.934Z,-5.56
2022-12-15T01:01:30.444Z,-5.61
2022-12-15T01:04:15.885Z,-5.52
2022-12-15T01:07:02.116Z,-5.52
2022-12-15T01:09:47.800Z,-5.51
2022-12-15T01:12:35.083Z,-5.52
2022-12-15T01:15:21.109Z,-5.50
2022-12-15T01:18:06.891Z,-5.48
2022-12-15T01:20:34.748Z,-5.50
2022-12-15T01:23:02.004Z,-5.53
2022-12-15T01:25:29.623Z,-5.52
2022-12-15T01:27:58.284Z,-5.51
2022-12-15T01:30:27.200Z,-5.52
2022-12-15T01:32:54.766Z,-5.53
2022-12-15T01:35:22.458Z,-5.50
2022-12-15T01:37:50.346Z,-5.51
2022-12-15T01:40:38.597Z,-5.55
2022-12-15T01:43:13.899Z,-5.55
2022-12-15T01:46:02.033Z,-5.52
2022-12-15T01:48:34.599Z,-5.51
2022-12-15T01:51:10.378Z,-5.55
2022-12-15T01:53:42.671Z,-5.57
2022-12-15T01:56:11.056Z,-5.54
2022-12-15T01:58:42.797Z,-5.56
2022-12-15T02:01:10.901Z,-5.62
2022-12-15T02:03:39.864Z,-5.68
2022-12-15T02:06:09.394Z,-5.67
2022-12-15T02:08:38.157Z,-5.68
2022-12-15T02:11:43.171Z,-5.69
2022-12-15T02:14:14.793Z,-5.74
2022-12-15T02:17:07.031Z,-5.75
2022-12-15T02:19:59.949Z,-5.74
2022-12-15T02:22:40.725Z,-5.74
2022-12-15T02:25:22.817Z,-5.73
2022-12-15T02:27:57.223Z,-5.74
2022-12-15T02:30:32.783Z,-5.85
2022-12-15T02:33:07.175Z,-5.77
2022-12-15T02:35:45.418Z,-5.79
2022-12-15T02:38:12.916Z,-5.79
2022-12-15T02:40:40.611Z,-5.82
2022-12-15T02:43:10.227Z,-5.88
2022-12-15T02:45:51.382Z,-5.86
2022-12-15T02:48:29.184Z,-5.85
2022-12-15T02:51:12.045Z,-5.86
2022-12-15T02:53:53.019Z,-5.86
2022-12-15T02:56:30.214Z,-5.92
2022-12-15T02:59:04.620Z,-5.84
2022-12-15T03:01:40.249Z,-5.85
2022-12-15T03:04:10.414Z,-5.74
2022-12-15T03:06:38.328Z,-5.66
2022-12-15T03:09:05.908Z,-5.70
2022-12-15T03:11:33.697Z,-5.73
2022-12-15T03:14:01.118Z,-5.71
2022-12-15T03:16:28.689Z,-5.66
2022-12-15T03:18:57.420Z,-5.70
2022-12-15T03:21:24.924Z,-5.63
2022-12-15T03:23:52.151Z,-5.62
2022-12-15T03:26:19.382Z,-5.60
2022-12-15T03:28:46.744Z,-5.59
2022-12-15T03:31:14.189Z,-5.57
2022-12-15T03:33:41.790Z,-5.51
2022-12-15T03:36:10.833Z,-5.51
2022-12-15T03:38:38.059Z,-5.45
2022-12-15T03:41:05.698Z,-5.43
2022-12-15T03:43:33.398Z,-5.45
2022-12-15T03:46:01.252Z,-5.42
2022-12-15T03:48:28.607Z,-5.42
2022-12-15T03:50:55.924Z,-5.44
2022-12-15T03:53:24.775Z,-5.37
2022-12-15T03:55:52.219Z,-5.33
2022-12-15T03:58:19.754Z,-5.38
2022-12-15T04:00:47.088Z,-5.38
2022-12-15T04:03:14.377Z,-5.33
2022-12-15T04:05:41.819Z,-5.38
2022-12-15T04:08:09.074Z,-5.42
2022-12-15T04:10:37.691Z,-5.42
2022-12-15T04:13:07.478Z,-5.31
2022-12-15T04:15:35.309Z,-5.33
2022-12-15T04:18:03.355Z,-5.41
2022-12-15T04:20:30.594Z,-5.32
2022-12-15T04:22:58.025Z,-5.32
2022-12-15T04:25:44.878Z,-5.23
2022-12-15T04:28:32.642Z,-5.30
2022-12-15T04:31:25.366Z,-5.29
2022-12-15T04:34:14.881Z,-5.29
2022-12-15T04:37:04.201Z,-5.23
2022-12-15T04:39:49.937Z,-5.14
2022-12-15T04:42:38.027Z,-5.22
2022-12-15T04:45:28.037Z,-5.27
2022-12-15T04:48:13.765Z,-5.27
2022-12-15T04:50:59.523Z,-5.20
2022-12-15T04:53:45.164Z,-5.13
2022-12-15T04:56:32.872Z,-5.08
2022-12-15T04:59:19.646Z,-5.24
2022-12-15T05:02:07.819Z,-5.16
2022-12-15T05:04:53.667Z,-5.23
2022-12-15T05:07:39.790Z,-5.20
2022-12-15T05:10:26.378Z,-5.29
2022-12-15T05:13:12.290Z,-5.30
2022-12-15T05:15:58.120Z,-5.38
2022-12-15T05:18:45.140Z,-5.54
2022-12-15T05:21:31.160Z,-5.64
2022-12-15T05:24:17.323Z,-5.73
2022-12-15T05:27:02.936Z,-5.80
2022-12-15T05:29:48.568Z,-5.83
2022-12-15T05:32:15.874Z,-5.90
2022-12-15T05:34:44.613Z,-5.97
2022-12-15T05:37:11.928Z,-6.04
2022-12-15T05:39:39.176Z,-6.16
2022-12-15T05:42:06.644Z,-6.26
2022-12-15T05:44:34.272Z,-6.31
2022-12-15T05:47:01.544Z,-6.35
2022-12-15T05:49:29.070Z,-6.43
2022-12-15T05:51:57.855Z,-6.45
2022-12-15T05:54:25.620Z,-6.47
2022-12-15T05:56:53.111Z,-6.59
2022-12-15T05:59:20.662Z,-6.80
2022-12-15T06:01:48.104Z,-6.87
2022-12-15T06:04:15.868Z,-7.09
2022-12-15T06:06:43.177Z,-7.13
2022-12-15T06:09:12.119Z,-7.11
2022-12-15T06:11:39.536Z,-7.12
2022-12-15T06:14:06.953Z,-7.18
2022-12-15T06:16:38.251Z,-7.22
2022-12-15T06:19:08.945Z,-7.20
2022-12-15T06:21:36.442Z,-7.24
2022-12-15T06:24:05.406Z,-7.24
2022-12-15T06:26:36.424Z,-7.10
2022-12-15T06:29:05.896Z,-7.08
2022-12-15T06:31:34.105Z,-7.14
2022-12-15T06:34:04.396Z,-7.23
2022-12-15T06:36:32.595Z,-7.33
2022-12-15T06:39:01.011Z,-7.23
2022-12-15T06:41:30.737Z,-7.10
2022-12-15T06:44:00.392Z,-7.02
2022-12-15T06:46:29.909Z,-7.12
2022-12-15T06:48:57.857Z,-7.24
2022-12-15T06:51:28.559Z,-7.24
2022-12-15T06:53:56.517Z,-7.18
2022-12-15T06:56:32.464Z,-7.22
2022-12-15T06:59:03.576Z,-7.12
2022-12-15T07:01:31.589Z,-7.09
2022-12-15T07:04:01.724Z,-7.25
2022-12-15T07:06:36.609Z,-7.39
2022-12-15T07:09:07.317Z,-7.43
2022-12-15T07:11:35.366Z,-7.58
2022-12-15T07:14:05.115Z,-7.54
2022-12-15T07:16:32.631Z,-7.45
2022-12-15T07:19:00.003Z,-7.50
2022-12-15T07:21:27.238Z,-7.50
2022-12-15T07:23:56.430Z,-7.37
2022-12-15T07:26:25.238Z,-7.31
2022-12-15T07:28:53.986Z,-7.24
2022-12-15T07:31:23.846Z,-7.20
2022-12-15T07:33:52.763Z,-7.08
2022-12-15T07:36:20.592Z,-7.05
2022-12-15T07:38:51.076Z,-7.03
2022-12-15T07:41:20.352Z,-7.04
2022-12-15T07:43:48.379Z,-7.18
2022-12-15T07:46:16.187Z,-7.04
2022-12-15T07:48:50.353Z,-7.03
2022-12-15T07:51:20.342Z,-6.96
2022-12-15T07:53:49.644Z,-6.97
2022-12-15T07:56:17.602Z,-7.01
2022-12-15T07:58:45.161Z,-7.00
2022-12-15T08:01:13.787Z,-6.94
2022-12-15T08:03:41.749Z,-6.95
2022-12-15T08:06:12.220Z,-6.87
2022-12-15T08:08:40.606Z,-6.81
2022-12-15T08:11:08.964Z,-6.77
2022-12-15T08:16:24.473Z,-6.73
2022-12-15T08:18:52.051Z,-6.71
2022-12-15T08:21:20.921Z,-6.66
2022-12-15T08:23:48.415Z,-6.60
2022-12-15T08:26:18.575Z,-6.71
2022-12-15T08:28:46.164Z,-6.53
2022-12-15T08:31:15.350Z,-6.66
2022-12-15T08:33:42.943Z,-6.60
2022-12-15T08:36:13.236Z,-6.67
2022-12-15T08:38:43.493Z,-6.61
2022-12-15T08:41:13.070Z,-6.64
2022-12-15T08:43:47.467Z,-6.59
2022-12-15T08:46:16.277Z,-6.57
2022-12-15T08:48:43.707Z,-6.42
2022-12-15T08:51:11.475Z,-6.33
2022-12-15T08:53:38.886Z,-6.38
2022-12-15T08:56:09.787Z,-6.37
2022-12-15T08:58:37.122Z,-6.30
2022-12-15T09:01:07.119Z,-6.29
2022-12-15T09:03:36.258Z,-6.33
2022-12-15T09:06:04.524Z,-6.27
2022-12-15T09:08:33.097Z,-6.17
2022-12-15T09:11:01.478Z,-6.07
2022-12-15T09:13:30.626Z,-6.17
2022-12-15T09:16:14.001Z,-6.13
2022-12-15T09:18:43.402Z,-6.27
2022-12-15T09:21:11.935Z,-6.07
2022-12-15T09:23:39.771Z,-6.09
2022-12-15T09:26:08.956Z,-6.11
2022-12-15T09:28:38.682Z,-6.15
2022-12-15T09:31:08.225Z,-6.20
2022-12-15T09:33:36.059Z,-6.16
2022-12-15T09:36:04.344Z,-6.18
2022-12-15T09:38:33.167Z,-6.17
2022-12-15T09:41:08.602Z,-6.17
2022-12-15T09:43:46.807Z,-6.17
2022-12-15T09:46:24.390Z,-6.11
2022-12-15T09:48:55.150Z,-6.05
2022-12-15T09:51:30.417Z,-5.99
2022-12-15T09:53:58.760Z,-5.95
2022-12-15T09:56:36.490Z,-5.95
2022-12-15T09:59:20.297Z,-5.90
2022-12-15T10:01:56.290Z,-5.90
2022-12-15T10:04:34.201Z,-5.88
2022-12-15T10:07:09.813Z,-5.96
2022-12-15T10:09:38.668Z,-5.97
2022-12-15T10:12:10.713Z,-6.04
2022-12-15T10:14:43.273Z,-5.96
2022-12-15T10:17:21.692Z,-5.96
2022-12-15T10:19:55.495Z,-5.99
2022-12-15T10:22:26.190Z,-5.97
2022-12-15T10:27:59.931Z,-6.07
2022-12-15T10:30:29.188Z,-6.01
2022-12-15T10:33:01.900Z,-6.01
2022-12-15T10:35:31.687Z,-6.22
2022-12-15T10:38:01.205Z,-6.14
2022-12-15T10:40:50.525Z,-6.21
2022-12-15T10:43:26.578Z,-6.26
2022-12-15T10:46:12.850Z,-6.30
2022-12-15T10:48:40.810Z,-6.40
2022-12-15T10:51:30.021Z,-6.35
2022-12-15T10:54:05.289Z,-6.42
2022-12-15T10:56:34.443Z,-6.63
2022-12-15T10:59:04.128Z,-6.47
2022-12-15T11:01:34.772Z,-6.46
2022-12-15T11:04:02.486Z,-6.49
2022-12-15T11:06:31.589Z,-6.52
2022-12-15T11:09:23.920Z,-6.52
2022-12-15T11:12:12.029Z,-6.57
2022-12-15T11:14:46.110Z,-6.54
2022-12-15T11:17:18.932Z,-6.55
2022-12-15T11:20:01.647Z,-6.56
2022-12-15T11:22:40.943Z,-6.62
2022-12-15T11:25:20.031Z,-6.64
2022-12-15T11:27:49.121Z,-6.72
2022-12-15T11:30:18.362Z,-6.67
2022-12-15T11:32:50.288Z,-6.67
2022-12-15T11:35:23.689Z,-6.72
2022-12-15T11:37:56.915Z,-6.77
2022-12-15T11:40:33.369Z,-6.73
2022-12-15T11:43:25.305Z,-6.75
2022-12-15T11:46:04.731Z,-6.72
2022-12-15T11:48:41.890Z,-6.69
2022-12-15T11:51:17.727Z,-6.70
2022-12-15T11:54:05.648Z,-6.71
2022-12-15T11:56:35.604Z,-6.73
2022-12-15T11:59:36.148Z,-6.73
2022-12-15T12:02:44.452Z,-6.79
2022-12-15T12:05:44.100Z,-6.96
2022-12-15T12:08:29.390Z,-6.94
2022-12-15T12:11:06.369Z,-7.00
2022-12-15T12:13:42.571Z,-7.06
2022-12-15T12:16:24.305Z,-7.07
2022-12-15T12:18:57.174Z,-7.05
2022-12-15T12:21:30.187Z,-7.12
2022-12-15T12:24:02.123Z,-7.09
2022-12-15T12:26:35.383Z,-7.10
2022-12-15T12:29:08.306Z,-7.18
2022-12-15T12:31:42.678Z,-7.13
2022-12-15T12:34:17.934Z,-7.14
2022-12-15T12:36:49.589Z,-7.11
2022-12-15T12:39:20.494Z,-7.10
2022-12-15T12:41:55.651Z,-7.07
2022-12-15T12:44:29.626Z,-7.06
2022-12-15T12:46:58.803Z,-7.05
2022-12-15T12:49:30.719Z,-7.03
2022-12-15T12:52:03.735Z,-7.03
2022-12-15T12:54:43.421Z,-7.07
2022-12-15T12:57:36.587Z,-7.04
2022-12-15T13:00:15.498Z,-7.05
2022-12-15T13:02:53.713Z,-7.20
2022-12-15T13:05:28.610Z,-7.06
2022-12-15T13:08:27.385Z,-7.08
2022-12-15T13:10:56.468Z,-7.24
2022-12-15T13:13:48.492Z,-7.20
2022-12-15T13:16:24.410Z,-7.14
2022-12-15T13:19:02.145Z,-7.14
2022-12-15T13:21:54.361Z,-7.14
2022-12-15T13:24:33.658Z,-7.19
2022-12-15T13:27:12.150Z,-7.17
2022-12-15T13:29:58.982Z,-7.21
2022-12-15T13:32:33.420Z,-7.25
2022-12-15T13:35:17.427Z,-7.24
2022-12-15T13:37:49.003Z,-7.30
2022-12-15T13:40:50.426Z,-7.33
2022-12-15T13:43:45.996Z,-7.35
2022-12-15T13:46:22.556Z,-7.36
2022-12-15T13:49:01.059Z,-7.37
2022-12-15T13:51:33.181Z,-7.50
2022-12-15T13:54:04.819Z,-7.44
2022-12-15T13:56:46.320Z,-7.41
2022-12-15T13:59:25.572Z,-7.39
2022-12-15T14:01:53.831Z,-7.41
2022-12-15T14:04:22.927Z,-7.41
2022-12-15T14:06:53.664Z,-7.50
2022-12-15T14:09:25.363Z,-7.39
2022-12-15T14:11:54.289Z,-7.33
2022-12-15T14:14:29.994Z,-7.34
2022-12-15T14:17:03.866Z,-7.34
2022-12-15T14:19:39.118Z,-7.32
2022-12-15T14:22:26.686Z,-7.30
2022-12-15T14:25:01.960Z,-7.40
2022-12-15T14:27:33.857Z,-7.26
2022-12-15T14:30:30.432Z,-7.22
2022-12-15T14:33:03.502Z,-7.25
2022-12-15T14:35:36.321Z,-7.39
2022-12-15T14:38:08.354Z,-7.32
2022-12-15T14:40:37.955Z,-7.38
2022-12-15T14:43:07.218Z,-7.35
2022-12-15T14:45:36.095Z,-7.33
2022-12-15T14:50:59.674Z,-7.40
2022-12-15T14:53:31.152Z,-7.42
2022-12-15T14:56:11.881Z,-7.40
2022-12-15T14:58:41.041Z,-7.47
2022-12-15T15:01:25.017Z,-7.44
2022-12-15T15:03:10.011Z,-5.99
2022-12-15T15:04:00.649Z,-7.51
2022-12-15T15:06:35.770Z,-7.64
2022-12-15T15:09:16.881Z,-7.55
2022-12-15T15:11:44.593Z,-7.62
2022-12-15T15:14:15.174Z,-7.64
2022-12-15T15:16:44.719Z,-7.71
2022-12-15T15:19:20.048Z,-7.77
2022-12-15T15:21:48.026Z,-7.80
2022-12-15T15:24:25.205Z,-7.81
2022-12-15T15:26:53.344Z,-7.92
2022-12-15T15:29:38.520Z,-8.02
2022-12-15T15:32:16.015Z,-7.90
2022-12-15T15:34:43.607Z,-7.95
2022-12-15T15:37:18.337Z,-8.04
2022-12-15T15:39:47.661Z,-8.07
2022-12-15T15:42:15.084Z,-8.12
2022-12-15T15:44:42.672Z,-8.13
2022-12-15T15:47:21.092Z,-8.10
2022-12-15T15:49:49.863Z,-8.09
2022-12-15T15:52:17.284Z,-8.19
2022-12-15T15:54:46.042Z,-8.22
2022-12-15T15:57:15.493Z,-8.23
2022-12-15T15:59:44.250Z,-8.19
2022-12-15T16:02:14.998Z,-8.20
2022-12-15T16:04:44.585Z,-8.22
2022-12-15T16:07:20.286Z,-8.29
2022-12-15T16:09:47.655Z,-8.29
2022-12-15T16:12:25.600Z,-8.30
2022-12-15T16:14:52.848Z,-8.27
2022-12-15T16:17:20.791Z,-8.22
2022-12-15T16:19:49.550Z,-8.17
2022-12-15T16:22:19.363Z,-8.23
2022-12-15T16:24:47.161Z,-8.11
2022-12-15T16:27:15.947Z,-8.06
2022-12-15T16:29:43.467Z,-8.04
2022-12-15T16:32:12.655Z,-7.97
2022-12-15T16:34:40.113Z,-8.01
2022-12-15T16:37:21.628Z,-7.94
2022-12-15T16:39:48.944Z,-7.94
2022-12-15T16:42:16.459Z,-7.94
2022-12-15T16:44:43.718Z,-7.94
2022-12-15T16:47:10.887Z,-7.94
2022-12-15T16:49:40.480Z,-7.93
2022-12-15T16:52:17.206Z,-7.93
2022-12-15T16:54:48.162Z,-7.96
2022-12-15T16:57:15.571Z,-7.93
2022-12-15T16:59:42.762Z,-7.91
2022-12-15T17:02:27.193Z,-7.93
2022-12-15T17:04:55.459Z,-7.88
2022-12-15T17:07:26.445Z,-7.84
2022-12-15T17:09:53.813Z,-7.84
2022-12-15T17:12:21.202Z,-7.82
2022-12-15T17:14:48.604Z,-7.79
2022-12-15T17:17:18.236Z,-7.84
2022-12-15T17:20:11.738Z,-7.74
2022-12-15T17:22:35.081Z,-7.73
2022-12-15T17:25:02.672Z,-7.71
2022-12-15T17:27:31.788Z,-7.66
2022-12-15T17:30:00.712Z,-7.65
2022-12-15T17:32:28.400Z,-7.61
2022-12-15T17:34:55.987Z,-7.58
2022-12-15T17:37:26.948Z,-7.57
2022-12-15T17:39:57.912Z,-7.55
2022-12-15T17:42:25.442Z,-7.54
2022-12-15T17:44:53.015Z,-7.51
2022-12-15T17:47:20.563Z,-7.47
2022-12-15T17:49:48.179Z,-7.44
2022-12-15T17:52:26.334Z,-7.37
2022-12-15T17:54:54.520Z,-7.35
2022-12-15T17:57:23.297Z,-7.29
2022-12-15T17:59:50.616Z,-7.25
2022-12-15T18:02:18.309Z,-7.20
2022-12-15T18:04:46.059Z,-7.15
2022-12-15T18:07:17.340Z,-7.22
2022-12-15T18:09:44.700Z,-6.96
2022-12-15T18:12:18.388Z,-7.00
2022-12-15T18:14:47.969Z,-6.85
2022-12-15T18:17:15.625Z,-6.83
2022-12-15T18:19:43.001Z,-6.80
2022-12-15T18:22:12.712Z,-6.79
2022-12-15T18:24:41.277Z,-6.75
2022-12-15T18:27:19.868Z,-6.77
2022-12-15T18:29:48.654Z,-6.69
2022-12-15T18:32:17.089Z,-6.66
2022-12-15T18:34:44.371Z,-6.63
2022-12-15T18:37:15.623Z,-6.61
2022-12-15T18:39:42.865Z,-6.59
2022-12-15T18:42:14.416Z,-6.56
2022-12-15T18:44:46.010Z,-6.53
2022-12-15T18:47:17.627Z,-6.50
2022-12-15T18:49:45.718Z,-6.47
2022-12-15T18:52:17.350Z,-6.52
2022-12-15T18:54:45.088Z,-6.42
2022-12-15T18:57:26.546Z,-6.39
2022-12-15T18:59:57.439Z,-6.37
2022-12-15T19:02:26.575Z,-6.37
2022-12-15T19:04:53.950Z,-6.35
2022-12-15T19:07:21.747Z,-6.35
2022-12-15T19:09:49.828Z,-6.35
2022-12-15T19:12:17.869Z,-6.32
2022-12-15T19:14:47.177Z,-6.30
2022-12-15T19:17:34.857Z,-6.28
2022-12-15T19:20:23.999Z,-6.40
2022-12-15T19:22:52.380Z,-6.22
2022-12-15T19:25:26.101Z,-6.20
2022-12-15T19:27:58.974Z,-6.16
2022-12-15T19:30:28.546Z,-6.13
2022-12-15T19:32:56.066Z,-6.11
2022-12-15T19:35:25.133Z,-6.08
2022-12-15T19:37:55.295Z,-6.09
2022-12-15T19:40:27.633Z,-6.06
2022-12-15T19:42:55.757Z,-6.08
2022-12-15T19:45:25.455Z,-6.02
2022-12-15T19:47:52.945Z,-5.99
2022-12-15T19:50:22.960Z,-5.98
2022-12-15T19:52:58.849Z,-5.93
2022-12-15T19:55:28.787Z,-5.93
2022-12-15T19:57:56.252Z,-5.88
2022-12-15T20:00:24.949Z,-5.86
2022-12-15T20:02:54.928Z,-5.84
2022-12-15T20:05:23.399Z,-5.82
2022-12-15T20:07:52.791Z,-5.80
2022-12-15T20:10:31.213Z,-5.77
2022-12-15T20:12:59.696Z,-5.75
2022-12-15T20:15:27.313Z,-5.70
2022-12-15T20:17:57.895Z,-5.69
2022-12-15T20:20:27.910Z,-5.67
2022-12-15T20:22:57.187Z,-5.63
2022-12-15T20:25:28.280Z,-5.61
2022-12-15T20:27:55.962Z,-5.60
2022-12-15T20:30:26.600Z,-5.59
2022-12-15T20:32:54.110Z,-5.61
2022-12-15T20:35:22.920Z,-5.58
2022-12-15T20:37:50.990Z,-5.66
2022-12-15T20:40:20.041Z,-5.56
2022-12-15T20:42:50.192Z,-5.61
2022-12-15T20:45:20.139Z,-5.55
2022-12-15T20:47:49.931Z,-5.57
2022-12-15T20:50:28.024Z,-5.55
2022-12-15T20:52:55.505Z,-5.50
2022-12-15T20:55:25.306Z,-5.49
2022-12-15T20:57:54.565Z,-5.46
2022-12-15T21:00:22.742Z,-5.46
2022-12-15T21:02:52.110Z,-5.42
2022-12-15T21:05:24.928Z,-5.40
2022-12-15T21:07:52.645Z,-5.40
2022-12-15T21:10:20.982Z,-5.37
2022-12-15T21:12:49.741Z,-5.43
2022-12-15T21:15:21.241Z,-5.44
2022-12-15T21:17:57.350Z,-5.38
2022-12-15T21:20:39.832Z,-5.33
2022-12-15T21:23:17.635Z,-5.39
2022-12-15T21:25:44.871Z,-5.30
2022-12-15T21:28:12.097Z,-5.29
2022-12-15T21:30:41.247Z,-5.27
2022-12-15T21:33:08.721Z,-5.24
2022-12-15T21:35:37.615Z,-5.23
2022-12-15T21:38:07.531Z,-5.17
2022-12-15T21:40:34.832Z,-5.12
2022-12-15T21:43:04.619Z,-5.09
2022-12-15T21:45:31.865Z,-5.07
2022-12-15T21:48:18.809Z,-5.04
2022-12-15T21:50:47.997Z,-5.03
2022-12-15T21:53:17.580Z,-5.02
2022-12-15T21:55:47.248Z,-5.00
2022-12-15T21:58:20.228Z,-4.98
2022-12-15T22:00:48.239Z,-5.02
2022-12-15T22:03:17.208Z,-4.95
2022-12-15T22:05:44.571Z,-4.93
2022-12-15T22:08:16.712Z,-4.93
2022-12-15T22:10:45.866Z,-4.90
2022-12-15T22:13:17.875Z,-5.01
2022-12-15T22:15:46.224Z,-4.84
2022-12-15T22:18:19.934Z,-4.84
2022-12-15T22:20:50.547Z,-4.85
2022-12-15T22:23:19.034Z,-4.83
2022-12-15T22:25:51.150Z,-4.82
2022-12-15T22:28:21.873Z,-4.80
2022-12-15T22:30:50.570Z,-4.79
2022-12-15T22:33:23.897Z,-4.82
2022-12-15T22:35:54.898Z,-4.79
2022-12-15T22:38:23.859Z,-4.85
2022-12-15T22:40:53.776Z,-4.95
2022-12-15T22:43:28.467Z,-4.78
2022-12-15T22:45:56.219Z,-4.77
2022-12-15T22:48:31.752Z,-4.84
2022-12-15T22:51:00.973Z,-4.82
2022-12-15T22:53:31.230Z,-4.75
2022-12-15T22:56:00.517Z,-4.74
2022-12-15T22:58:37.819Z,-4.73
2022-12-15T23:01:06.755Z,-4.72
2022-12-15T23:03:35.146Z,-4.70
2022-12-15T23:06:04.924Z,-4.68
2022-12-15T23:08:32.808Z,-4.69
2022-12-15T23:11:18.952Z,-4.67
2022-12-15T23:13:46.341Z,-4.66
2022-12-15T23:16:20.512Z,-4.67
2022-12-15T23:18:49.059Z,-4.63
2022-12-15T23:21:18.129Z,-4.62
2022-12-15T23:23:46.050Z,-4.58
2022-12-15T23:26:14.522Z,-4.57
2022-12-15T23:28:43.465Z,-4.54
2022-12-15T23:31:11.573Z,-4.53
2022-12-15T23:33:39.139Z,-4.50
2022-12-15T23:36:06.794Z,-4.47
2022-12-15T23:38:35.850Z,-4.46
2022-12-15T23:41:03.094Z,-4.43
2022-12-15T23:43:32.542Z,-4.42
2022-12-15T23:46:01.860Z,-4.40
2022-12-15T23:48:30.885Z,-4.36
2022-12-15T23:51:04.740Z,-4.35
2022-12-15T23:53:32.666Z,-4.32
2022-12-15T23:56:09.710Z,-4.31
2022-12-15T23:58:37.757Z,-4.29
